sensor_id;sensor_type;location;lat;lon;timestamp;temperature;humidity
11009;DHT22;5557;51.670;7.788;2024-03-02T00:00:09;7.80;1.00
11009;DHT22;5557;51.670;7.788;2024-03-02T00:02:44;7.90;1.00
11009;DHT22;5557;51.670;7.788;2024-03-02T00:05:12;8.00;1.00
11009;DHT22;5557;51.670;7.788;2024-03-02T00:07:43;7.90;1.00
11009;DHT22;5557;51.670;7.788;2024-03-02T00:10:13;7.90;1.00
11009;DHT22;5557;51.670;7.788;2024-03-02T00:12:47;7.90;1.00
11009;DHT22;5557;51.670;7.788;2024-03-02T00:18:18;7.80;1.00
11009;DHT22;5557;51.670;7.788;2024-03-02T00:20:45;7.80;1.00
11009;DHT22;5557;51.670;7.788;2024-03-02T00:23:18;7.80;1.00
11009;DHT22;5557;51.670;7.788;2024-03-02T00:25:54;7.80;1.00
11009;DHT22;5557;51.670;7.788;2024-03-02T00:28:23;7.80;1.00
11009;DHT22;5557;51.670;7.788;2024-03-02T00:31:10;7.70;1.00
11009;DHT22;5557;51.670;7.788;2024-03-02T00:33:45;7.70;1.00
11009;DHT22;5557;51.670;7.788;2024-03-02T00:36:22;7.70;1.00
11009;DHT22;5557;51.670;7.788;2024-03-02T00:38:52;7.70;1.00
11009;DHT22;5557;51.670;7.788;2024-03-02T00:41:30;7.80;1.00
11009;DHT22;5557;51.670;7.788;2024-03-02T00:44:04;7.80;1.00
11009;DHT22;5557;51.670;7.788;2024-03-02T00:46:37;7.90;1.00
11009;DHT22;5557;51.670;7.788;2024-03-02T00:49:22;7.80;1.00
11009;DHT22;5557;51.670;7.788;2024-03-02T00:51:51;7.90;1.00
11009;DHT22;5557;51.670;7.788;2024-03-02T00:54:29;7.90;1.00
11009;DHT22;5557;51.670;7.788;2024-03-02T00:56:57;7.80;1.00
11009;DHT22;5557;51.670;7.788;2024-03-02T00:59:24;7.80;1.00
11009;DHT22;5557;51.670;7.788;2024-03-02T01:01:52;7.80;1.00
11009;DHT22;5557;51.670;7.788;2024-03-02T01:04:22;7.80;1.00
11009;DHT22;5557;51.670;7.788;2024-03-02T01:06:49;7.80;1.00
11009;DHT22;5557;51.670;7.788;2024-03-02T01:09:16;7.80;1.00
11009;DHT22;5557;51.670;7.788;2024-03-02T01:11:45;7.90;1.00
11009;DHT22;5557;51.670;7.788;2024-03-02T01:14:12;7.90;1.00
11009;DHT22;5557;51.670;7.788;2024-03-02T01:16:39;8.00;1.00
11009;DHT22;5557;51.670;7.788;2024-03-02T01:19:06;7.90;1.00
11009;DHT22;5557;51.670;7.788;2024-03-02T01:21:33;7.80;1.00
11009;DHT22;5557;51.670;7.788;2024-03-02T01:24:00;7.80;1.00
11009;DHT22;5557;51.670;7.788;2024-03-02T01:26:27;7.90;1.00
11009;DHT22;5557;51.670;7.788;2024-03-02T01:28:54;7.90;1.00
11009;DHT22;5557;51.670;7.788;2024-03-02T01:31:21;7.80;1.00
11009;DHT22;5557;51.670;7.788;2024-03-02T01:33:49;7.90;1.00
11009;DHT22;5557;51.670;7.788;2024-03-02T01:36:16;7.90;1.00
11009;DHT22;5557;51.670;7.788;2024-03-02T01:38:43;7.90;1.00
11009;DHT22;5557;51.670;7.788;2024-03-02T01:41:10;8.00;1.00
11009;DHT22;5557;51.670;7.788;2024-03-02T01:43:38;7.90;1.00
11009;DHT22;5557;51.670;7.788;2024-03-02T01:46:07;7.80;1.00
11009;DHT22;5557;51.670;7.788;2024-03-02T01:48:37;7.80;1.00
11009;DHT22;5557;51.670;7.788;2024-03-02T01:51:04;7.80;1.00
11009;DHT22;5557;51.670;7.788;2024-03-02T01:53:35;7.80;1.00
11009;DHT22;5557;51.670;7.788;2024-03-02T01:56:05;7.80;1.00
11009;DHT22;5557;51.670;7.788;2024-03-02T01:58:34;7.80;1.00
11009;DHT22;5557;51.670;7.788;2024-03-02T02:01:01;7.90;1.00
11009;DHT22;5557;51.670;7.788;2024-03-02T02:03:30;7.90;1.00
11009;DHT22;5557;51.670;7.788;2024-03-02T02:05:58;7.90;1.00
11009;DHT22;5557;51.670;7.788;2024-03-02T02:08:25;7.90;1.00
11009;DHT22;5557;51.670;7.788;2024-03-02T02:10:55;8.00;1.00
11009;DHT22;5557;51.670;7.788;2024-03-02T02:13:24;8.10;1.00
11009;DHT22;5557;51.670;7.788;2024-03-02T02:15:54;8.00;1.00
11009;DHT22;5557;51.670;7.788;2024-03-02T02:18:21;8.00;1.00
11009;DHT22;5557;51.670;7.788;2024-03-02T02:20:50;8.00;1.00
11009;DHT22;5557;51.670;7.788;2024-03-02T02:23:17;8.10;1.00
11009;DHT22;5557;51.670;7.788;2024-03-02T02:25:45;8.00;1.00
11009;DHT22;5557;51.670;7.788;2024-03-02T02:28:12;8.10;1.00
11009;DHT22;5557;51.670;7.788;2024-03-02T02:30:41;8.10;1.00
11009;DHT22;5557;51.670;7.788;2024-03-02T02:33:09;8.10;1.00
11009;DHT22;5557;51.670;7.788;2024-03-02T02:35:37;8.10;1.00
11009;DHT22;5557;51.670;7.788;2024-03-02T02:38:04;8.00;1.00
11009;DHT22;5557;51.670;7.788;2024-03-02T02:40:31;8.00;1.00
11009;DHT22;5557;51.670;7.788;2024-03-02T02:42:58;7.90;1.00
11009;DHT22;5557;51.670;7.788;2024-03-02T02:45:31;7.90;1.00
11009;DHT22;5557;51.670;7.788;2024-03-02T02:47:59;7.80;1.00
11009;DHT22;5557;51.670;7.788;2024-03-02T02:50:28;7.70;1.00
11009;DHT22;5557;51.670;7.788;2024-03-02T02:52:59;7.60;1.00
11009;DHT22;5557;51.670;7.788;2024-03-02T02:55:26;7.40;1.00
11009;DHT22;5557;51.670;7.788;2024-03-02T02:57:54;7.30;1.00
11009;DHT22;5557;51.670;7.788;2024-03-02T03:00:21;7.20;1.00
11009;DHT22;5557;51.670;7.788;2024-03-02T03:02:49;7.20;1.00
11009;DHT22;5557;51.670;7.788;2024-03-02T03:05:19;7.10;1.00
11009;DHT22;5557;51.670;7.788;2024-03-02T03:07:46;7.10;1.00
11009;DHT22;5557;51.670;7.788;2024-03-02T03:10:17;7.10;1.00
11009;DHT22;5557;51.670;7.788;2024-03-02T03:12:44;7.10;1.00
11009;DHT22;5557;51.670;7.788;2024-03-02T03:15:11;7.10;1.00
11009;DHT22;5557;51.670;7.788;2024-03-02T03:17:41;7.10;1.00
11009;DHT22;5557;51.670;7.788;2024-03-02T03:20:09;7.20;1.00
11009;DHT22;5557;51.670;7.788;2024-03-02T03:22:45;7.20;1.00
11009;DHT22;5557;51.670;7.788;2024-03-02T03:25:12;7.20;1.00
11009;DHT22;5557;51.670;7.788;2024-03-02T03:27:39;7.20;1.00
11009;DHT22;5557;51.670;7.788;2024-03-02T03:30:10;7.20;1.00
11009;DHT22;5557;51.670;7.788;2024-03-02T03:32:38;7.10;1.00
11009;DHT22;5557;51.670;7.788;2024-03-02T03:35:06;7.10;1.00
11009;DHT22;5557;51.670;7.788;2024-03-02T03:37:33;7.10;1.00
11009;DHT22;5557;51.670;7.788;2024-03-02T03:40:02;7.20;1.00
11009;DHT22;5557;51.670;7.788;2024-03-02T03:42:33;7.20;1.00
11009;DHT22;5557;51.670;7.788;2024-03-02T03:45:02;7.20;1.00
11009;DHT22;5557;51.670;7.788;2024-03-02T03:47:29;7.30;1.00
11009;DHT22;5557;51.670;7.788;2024-03-02T03:49:56;7.30;1.00
11009;DHT22;5557;51.670;7.788;2024-03-02T03:52:23;7.30;1.00
11009;DHT22;5557;51.670;7.788;2024-03-02T03:54:50;7.20;1.00
11009;DHT22;5557;51.670;7.788;2024-03-02T03:57:19;7.30;1.00
11009;DHT22;5557;51.670;7.788;2024-03-02T03:59:47;7.20;1.00
11009;DHT22;5557;51.670;7.788;2024-03-02T04:02:14;7.30;1.00
11009;DHT22;5557;51.670;7.788;2024-03-02T04:04:41;7.30;1.00
11009;DHT22;5557;51.670;7.788;2024-03-02T04:07:08;7.20;1.00
11009;DHT22;5557;51.670;7.788;2024-03-02T04:09:36;7.10;1.00
11009;DHT22;5557;51.670;7.788;2024-03-02T04:12:03;6.90;1.00
11009;DHT22;5557;51.670;7.788;2024-03-02T04:14:33;6.80;1.00
11009;DHT22;5557;51.670;7.788;2024-03-02T04:17:00;6.80;1.00
11009;DHT22;5557;51.670;7.788;2024-03-02T04:19:28;6.60;1.00
11009;DHT22;5557;51.670;7.788;2024-03-02T04:21:56;6.50;1.00
11009;DHT22;5557;51.670;7.788;2024-03-02T04:24:26;6.50;1.00
11009;DHT22;5557;51.670;7.788;2024-03-02T04:26:54;6.50;1.00
11009;DHT22;5557;51.670;7.788;2024-03-02T04:29:20;6.60;1.00
11009;DHT22;5557;51.670;7.788;2024-03-02T04:31:48;6.70;1.00
11009;DHT22;5557;51.670;7.788;2024-03-02T04:34:15;6.70;1.00
11009;DHT22;5557;51.670;7.788;2024-03-02T04:36:42;6.70;1.00
11009;DHT22;5557;51.670;7.788;2024-03-02T04:39:10;6.60;1.00
11009;DHT22;5557;51.670;7.788;2024-03-02T04:41:37;6.70;1.00
11009;DHT22;5557;51.670;7.788;2024-03-02T04:44:04;6.60;1.00
11009;DHT22;5557;51.670;7.788;2024-03-02T04:46:34;6.60;1.00
11009;DHT22;5557;51.670;7.788;2024-03-02T04:49:01;6.60;1.00
11009;DHT22;5557;51.670;7.788;2024-03-02T04:51:31;6.60;1.00
11009;DHT22;5557;51.670;7.788;2024-03-02T04:53:58;6.60;1.00
11009;DHT22;5557;51.670;7.788;2024-03-02T04:56:26;6.60;1.00
11009;DHT22;5557;51.670;7.788;2024-03-02T04:59:13;6.50;1.00
11009;DHT22;5557;51.670;7.788;2024-03-02T05:01:40;6.40;1.00
11009;DHT22;5557;51.670;7.788;2024-03-02T05:04:09;6.30;1.00
11009;DHT22;5557;51.670;7.788;2024-03-02T05:06:39;6.10;1.00
11009;DHT22;5557;51.670;7.788;2024-03-02T05:09:10;6.00;1.00
11009;DHT22;5557;51.670;7.788;2024-03-02T05:11:38;6.00;1.00
11009;DHT22;5557;51.670;7.788;2024-03-02T05:14:26;5.90;1.00
11009;DHT22;5557;51.670;7.788;2024-03-02T05:16:53;5.90;1.00
11009;DHT22;5557;51.670;7.788;2024-03-02T05:19:20;5.80;1.00
11009;DHT22;5557;51.670;7.788;2024-03-02T05:21:47;5.90;1.00
11009;DHT22;5557;51.670;7.788;2024-03-02T05:24:15;6.00;1.00
11009;DHT22;5557;51.670;7.788;2024-03-02T05:26:42;6.10;1.00
11009;DHT22;5557;51.670;7.788;2024-03-02T05:29:10;6.10;1.00
11009;DHT22;5557;51.670;7.788;2024-03-02T05:31:41;6.20;1.00
11009;DHT22;5557;51.670;7.788;2024-03-02T05:34:13;6.30;1.00
11009;DHT22;5557;51.670;7.788;2024-03-02T05:36:49;6.30;1.00
11009;DHT22;5557;51.670;7.788;2024-03-02T05:39:17;6.30;1.00
11009;DHT22;5557;51.670;7.788;2024-03-02T05:41:45;6.30;1.00
11009;DHT22;5557;51.670;7.788;2024-03-02T05:44:14;6.30;1.00
11009;DHT22;5557;51.670;7.788;2024-03-02T05:46:44;6.30;1.00
11009;DHT22;5557;51.670;7.788;2024-03-02T05:49:14;6.40;1.00
11009;DHT22;5557;51.670;7.788;2024-03-02T05:51:41;6.30;1.00
11009;DHT22;5557;51.670;7.788;2024-03-02T05:54:08;6.30;1.00
11009;DHT22;5557;51.670;7.788;2024-03-02T05:56:35;6.30;1.00
11009;DHT22;5557;51.670;7.788;2024-03-02T05:59:02;6.30;1.00
11009;DHT22;5557;51.670;7.788;2024-03-02T06:01:45;6.30;1.00
11009;DHT22;5557;51.670;7.788;2024-03-02T06:04:18;6.30;1.00
11009;DHT22;5557;51.670;7.788;2024-03-02T06:06:46;6.40;1.00
11009;DHT22;5557;51.670;7.788;2024-03-02T06:09:13;6.40;1.00
11009;DHT22;5557;51.670;7.788;2024-03-02T06:11:40;6.40;1.00
11009;DHT22;5557;51.670;7.788;2024-03-02T06:14:09;6.50;1.00
11009;DHT22;5557;51.670;7.788;2024-03-02T06:16:36;6.60;1.00
11009;DHT22;5557;51.670;7.788;2024-03-02T06:19:03;6.70;1.00
11009;DHT22;5557;51.670;7.788;2024-03-02T06:21:31;6.70;1.00
11009;DHT22;5557;51.670;7.788;2024-03-02T06:23:58;6.70;1.00
11009;DHT22;5557;51.670;7.788;2024-03-02T06:26:25;6.70;1.00
11009;DHT22;5557;51.670;7.788;2024-03-02T06:28:55;6.80;1.00
11009;DHT22;5557;51.670;7.788;2024-03-02T06:31:23;6.80;1.00
11009;DHT22;5557;51.670;7.788;2024-03-02T06:33:50;6.70;1.00
11009;DHT22;5557;51.670;7.788;2024-03-02T06:36:16;6.70;1.00
11009;DHT22;5557;51.670;7.788;2024-03-02T06:38:43;6.70;1.00
11009;DHT22;5557;51.670;7.788;2024-03-02T06:41:11;6.80;1.00
11009;DHT22;5557;51.670;7.788;2024-03-02T06:43:38;6.80;1.00
11009;DHT22;5557;51.670;7.788;2024-03-02T06:46:08;6.80;1.00
11009;DHT22;5557;51.670;7.788;2024-03-02T06:48:38;6.80;1.00
11009;DHT22;5557;51.670;7.788;2024-03-02T06:51:07;6.80;1.00
11009;DHT22;5557;51.670;7.788;2024-03-02T06:53:33;6.80;1.00
11009;DHT22;5557;51.670;7.788;2024-03-02T06:56:04;6.90;1.00
11009;DHT22;5557;51.670;7.788;2024-03-02T06:58:31;7.00;1.00
11009;DHT22;5557;51.670;7.788;2024-03-02T07:00:59;7.00;1.00
11009;DHT22;5557;51.670;7.788;2024-03-02T07:03:30;7.10;1.00
11009;DHT22;5557;51.670;7.788;2024-03-02T07:05:57;7.20;1.00
11009;DHT22;5557;51.670;7.788;2024-03-02T07:08:24;7.30;1.00
11009;DHT22;5557;51.670;7.788;2024-03-02T07:10:51;7.50;1.00
11009;DHT22;5557;51.670;7.788;2024-03-02T07:13:18;7.90;1.00
11009;DHT22;5557;51.670;7.788;2024-03-02T07:15:47;8.40;1.00
11009;DHT22;5557;51.670;7.788;2024-03-02T07:18:34;8.70;1.00
11009;DHT22;5557;51.670;7.788;2024-03-02T07:21:04;9.10;1.00
11009;DHT22;5557;51.670;7.788;2024-03-02T07:23:31;9.30;1.00
11009;DHT22;5557;51.670;7.788;2024-03-02T07:25:58;9.30;1.00
11009;DHT22;5557;51.670;7.788;2024-03-02T07:28:31;9.10;1.00
11009;DHT22;5557;51.670;7.788;2024-03-02T07:31:00;8.90;1.00
11009;DHT22;5557;51.670;7.788;2024-03-02T07:33:28;8.70;1.00
11009;DHT22;5557;51.670;7.788;2024-03-02T07:35:55;8.80;1.00
11009;DHT22;5557;51.670;7.788;2024-03-02T07:38:23;8.80;1.00
11009;DHT22;5557;51.670;7.788;2024-03-02T07:40:51;8.80;1.00
11009;DHT22;5557;51.670;7.788;2024-03-02T07:43:20;9.10;1.00
11009;DHT22;5557;51.670;7.788;2024-03-02T07:45:47;9.30;1.00
11009;DHT22;5557;51.670;7.788;2024-03-02T07:48:15;9.40;1.00
11009;DHT22;5557;51.670;7.788;2024-03-02T07:50:42;10.10;1.00
11009;DHT22;5557;51.670;7.788;2024-03-02T07:53:10;11.10;1.00
11009;DHT22;5557;51.670;7.788;2024-03-02T07:55:38;11.80;1.00
11009;DHT22;5557;51.670;7.788;2024-03-02T07:58:08;13.00;1.00
11009;DHT22;5557;51.670;7.788;2024-03-02T08:00:39;13.80;1.00
11009;DHT22;5557;51.670;7.788;2024-03-02T08:03:09;14.50;1.00
11009;DHT22;5557;51.670;7.788;2024-03-02T08:05:38;14.70;1.00
11009;DHT22;5557;51.670;7.788;2024-03-02T08:08:07;14.20;1.00
11009;DHT22;5557;51.670;7.788;2024-03-02T08:10:34;13.90;1.00
11009;DHT22;5557;51.670;7.788;2024-03-02T08:13:03;13.70;1.00
11009;DHT22;5557;51.670;7.788;2024-03-02T08:15:30;13.60;1.00
11009;DHT22;5557;51.670;7.788;2024-03-02T08:17:57;13.40;1.00
11009;DHT22;5557;51.670;7.788;2024-03-02T08:20:25;12.40;1.00
11009;DHT22;5557;51.670;7.788;2024-03-02T08:22:52;12.30;1.00
11009;DHT22;5557;51.670;7.788;2024-03-02T08:25:21;13.10;1.00
11009;DHT22;5557;51.670;7.788;2024-03-02T08:27:49;14.10;1.00
11009;DHT22;5557;51.670;7.788;2024-03-02T08:30:19;14.30;1.00
11009;DHT22;5557;51.670;7.788;2024-03-02T08:32:50;14.30;1.00
11009;DHT22;5557;51.670;7.788;2024-03-02T08:35:17;15.00;1.00
11009;DHT22;5557;51.670;7.788;2024-03-02T08:37:45;16.40;1.00
11009;DHT22;5557;51.670;7.788;2024-03-02T08:40:13;17.70;1.00
11009;DHT22;5557;51.670;7.788;2024-03-02T08:42:46;17.90;1.00
11009;DHT22;5557;51.670;7.788;2024-03-02T08:45:27;17.80;1.00
11009;DHT22;5557;51.670;7.788;2024-03-02T08:47:58;18.20;1.00
11009;DHT22;5557;51.670;7.788;2024-03-02T08:50:25;17.40;1.00
11009;DHT22;5557;51.670;7.788;2024-03-02T08:52:52;17.50;1.00
11009;DHT22;5557;51.670;7.788;2024-03-02T08:55:20;17.60;1.00
11009;DHT22;5557;51.670;7.788;2024-03-02T08:57:47;17.80;1.00
11009;DHT22;5557;51.670;7.788;2024-03-02T09:00:17;18.40;1.00
11009;DHT22;5557;51.670;7.788;2024-03-02T09:02:46;17.90;1.00
11009;DHT22;5557;51.670;7.788;2024-03-02T09:05:13;17.60;1.00
11009;DHT22;5557;51.670;7.788;2024-03-02T09:07:40;16.30;1.00
11009;DHT22;5557;51.670;7.788;2024-03-02T09:10:09;16.10;1.00
11009;DHT22;5557;51.670;7.788;2024-03-02T09:12:38;16.80;1.00
11009;DHT22;5557;51.670;7.788;2024-03-02T09:15:08;16.90;1.00
11009;DHT22;5557;51.670;7.788;2024-03-02T09:17:36;16.60;1.00
11009;DHT22;5557;51.670;7.788;2024-03-02T09:20:05;17.30;1.00
11009;DHT22;5557;51.670;7.788;2024-03-02T09:22:33;17.60;1.00
11009;DHT22;5557;51.670;7.788;2024-03-02T09:25:03;18.20;1.00
11009;DHT22;5557;51.670;7.788;2024-03-02T09:27:30;18.30;1.00
11009;DHT22;5557;51.670;7.788;2024-03-02T09:29:57;17.60;1.00
11009;DHT22;5557;51.670;7.788;2024-03-02T09:32:24;17.30;1.00
11009;DHT22;5557;51.670;7.788;2024-03-02T09:34:56;17.20;1.00
11009;DHT22;5557;51.670;7.788;2024-03-02T09:37:28;17.70;1.00
11009;DHT22;5557;51.670;7.788;2024-03-02T09:39:57;16.90;1.00
11009;DHT22;5557;51.670;7.788;2024-03-02T09:42:24;16.70;1.00
11009;DHT22;5557;51.670;7.788;2024-03-02T09:44:57;16.90;1.00
11009;DHT22;5557;51.670;7.788;2024-03-02T09:47:24;17.10;1.00
11009;DHT22;5557;51.670;7.788;2024-03-02T09:49:52;16.50;1.00
11009;DHT22;5557;51.670;7.788;2024-03-02T09:52:19;16.40;1.00
11009;DHT22;5557;51.670;7.788;2024-03-02T09:54:47;16.80;1.00
11009;DHT22;5557;51.670;7.788;2024-03-02T09:57:15;16.60;1.00
11009;DHT22;5557;51.670;7.788;2024-03-02T09:59:43;16.60;1.00
11009;DHT22;5557;51.670;7.788;2024-03-02T10:02:11;17.10;1.00
11009;DHT22;5557;51.670;7.788;2024-03-02T10:04:38;17.60;1.00
11009;DHT22;5557;51.670;7.788;2024-03-02T10:07:15;17.60;1.00
11009;DHT22;5557;51.670;7.788;2024-03-02T10:09:44;17.40;1.00
11009;DHT22;5557;51.670;7.788;2024-03-02T10:12:13;16.90;1.00
11009;DHT22;5557;51.670;7.788;2024-03-02T10:14:43;16.20;1.00
11009;DHT22;5557;51.670;7.788;2024-03-02T10:17:11;16.30;1.00
11009;DHT22;5557;51.670;7.788;2024-03-02T10:19:39;16.50;1.00
11009;DHT22;5557;51.670;7.788;2024-03-02T10:22:10;16.70;1.00
11009;DHT22;5557;51.670;7.788;2024-03-02T10:24:42;17.20;1.00
11009;DHT22;5557;51.670;7.788;2024-03-02T10:27:22;17.10;1.00
11009;DHT22;5557;51.670;7.788;2024-03-02T10:29:50;16.90;1.00
11009;DHT22;5557;51.670;7.788;2024-03-02T10:32:23;16.50;1.00
11009;DHT22;5557;51.670;7.788;2024-03-02T10:34:59;16.20;1.00
11009;DHT22;5557;51.670;7.788;2024-03-02T10:37:30;16.30;1.00
11009;DHT22;5557;51.670;7.788;2024-03-02T10:39:57;16.40;1.00
11009;DHT22;5557;51.670;7.788;2024-03-02T10:42:32;16.10;1.00
11009;DHT22;5557;51.670;7.788;2024-03-02T10:44:59;15.90;1.00
11009;DHT22;5557;51.670;7.788;2024-03-02T10:47:31;15.60;1.00
11009;DHT22;5557;51.670;7.788;2024-03-02T10:50:08;15.70;1.00
11009;DHT22;5557;51.670;7.788;2024-03-02T10:52:38;16.00;1.00
11009;DHT22;5557;51.670;7.788;2024-03-02T10:55:13;16.20;1.00
11009;DHT22;5557;51.670;7.788;2024-03-02T10:57:50;16.20;1.00
11009;DHT22;5557;51.670;7.788;2024-03-02T11:00:19;15.50;1.00
11009;DHT22;5557;51.670;7.788;2024-03-02T11:02:57;15.50;1.00
11009;DHT22;5557;51.670;7.788;2024-03-02T11:05:30;15.70;1.00
11009;DHT22;5557;51.670;7.788;2024-03-02T11:08:06;15.70;1.00
11009;DHT22;5557;51.670;7.788;2024-03-02T11:10:51;15.70;1.00
11009;DHT22;5557;51.670;7.788;2024-03-02T11:13:27;16.10;1.00
11009;DHT22;5557;51.670;7.788;2024-03-02T11:16:12;15.60;1.00
11009;DHT22;5557;51.670;7.788;2024-03-02T11:18:46;15.20;1.00
11009;DHT22;5557;51.670;7.788;2024-03-02T11:21:17;15.30;1.00
11009;DHT22;5557;51.670;7.788;2024-03-02T11:23:44;15.60;1.00
11009;DHT22;5557;51.670;7.788;2024-03-02T11:26:21;15.70;1.00
11009;DHT22;5557;51.670;7.788;2024-03-02T11:28:51;15.80;1.00
11009;DHT22;5557;51.670;7.788;2024-03-02T11:31:18;15.90;1.00
11009;DHT22;5557;51.670;7.788;2024-03-02T11:33:48;15.60;1.00
11009;DHT22;5557;51.670;7.788;2024-03-02T11:36:16;15.30;1.00
11009;DHT22;5557;51.670;7.788;2024-03-02T11:38:47;14.90;1.00
11009;DHT22;5557;51.670;7.788;2024-03-02T11:41:15;15.00;1.00
11009;DHT22;5557;51.670;7.788;2024-03-02T11:43:42;15.10;1.00
11009;DHT22;5557;51.670;7.788;2024-03-02T11:46:11;15.00;1.00
11009;DHT22;5557;51.670;7.788;2024-03-02T11:48:40;14.90;1.00
11009;DHT22;5557;51.670;7.788;2024-03-02T11:51:07;14.80;1.00
11009;DHT22;5557;51.670;7.788;2024-03-02T11:53:38;15.00;1.00
11009;DHT22;5557;51.670;7.788;2024-03-02T11:56:06;15.10;1.00
11009;DHT22;5557;51.670;7.788;2024-03-02T11:58:37;15.00;1.00
11009;DHT22;5557;51.670;7.788;2024-03-02T12:01:08;15.00;1.00
11009;DHT22;5557;51.670;7.788;2024-03-02T12:03:38;15.00;1.00
11009;DHT22;5557;51.670;7.788;2024-03-02T12:06:06;14.80;1.00
11009;DHT22;5557;51.670;7.788;2024-03-02T12:08:34;14.90;1.00
11009;DHT22;5557;51.670;7.788;2024-03-02T12:11:02;14.70;1.00
11009;DHT22;5557;51.670;7.788;2024-03-02T12:13:31;14.50;1.00
11009;DHT22;5557;51.670;7.788;2024-03-02T12:15:58;14.60;1.00
11009;DHT22;5557;51.670;7.788;2024-03-02T12:18:26;14.50;1.00
11009;DHT22;5557;51.670;7.788;2024-03-02T12:20:53;14.70;1.00
11009;DHT22;5557;51.670;7.788;2024-03-02T12:23:24;15.00;1.00
11009;DHT22;5557;51.670;7.788;2024-03-02T12:25:55;15.10;1.00
11009;DHT22;5557;51.670;7.788;2024-03-02T12:28:23;15.00;1.00
11009;DHT22;5557;51.670;7.788;2024-03-02T12:30:50;14.70;1.00
11009;DHT22;5557;51.670;7.788;2024-03-02T12:33:19;14.90;1.00
11009;DHT22;5557;51.670;7.788;2024-03-02T12:35:49;15.00;1.00
11009;DHT22;5557;51.670;7.788;2024-03-02T12:38:16;15.10;1.00
11009;DHT22;5557;51.670;7.788;2024-03-02T12:40:43;15.20;1.00
11009;DHT22;5557;51.670;7.788;2024-03-02T12:43:13;15.10;1.00
11009;DHT22;5557;51.670;7.788;2024-03-02T12:45:40;14.90;1.00
11009;DHT22;5557;51.670;7.788;2024-03-02T12:48:07;14.90;1.00
11009;DHT22;5557;51.670;7.788;2024-03-02T12:50:44;15.10;1.00
11009;DHT22;5557;51.670;7.788;2024-03-02T12:53:15;14.90;1.00
11009;DHT22;5557;51.670;7.788;2024-03-02T12:55:44;14.70;1.00
11009;DHT22;5557;51.670;7.788;2024-03-02T12:58:22;14.80;1.00
11009;DHT22;5557;51.670;7.788;2024-03-02T13:00:49;14.90;1.00
11009;DHT22;5557;51.670;7.788;2024-03-02T13:03:18;14.80;1.00
11009;DHT22;5557;51.670;7.788;2024-03-02T13:05:49;14.90;1.00
11009;DHT22;5557;51.670;7.788;2024-03-02T13:08:17;14.90;1.00
11009;DHT22;5557;51.670;7.788;2024-03-02T13:10:44;15.10;1.00
11009;DHT22;5557;51.670;7.788;2024-03-02T13:13:11;15.10;1.00
11009;DHT22;5557;51.670;7.788;2024-03-02T13:15:39;15.10;1.00
11009;DHT22;5557;51.670;7.788;2024-03-02T13:18:07;15.00;1.00
11009;DHT22;5557;51.670;7.788;2024-03-02T13:20:34;15.00;1.00
11009;DHT22;5557;51.670;7.788;2024-03-02T13:23:03;15.00;1.00
11009;DHT22;5557;51.670;7.788;2024-03-02T13:25:30;15.00;1.00
11009;DHT22;5557;51.670;7.788;2024-03-02T13:27:59;14.90;1.00
11009;DHT22;5557;51.670;7.788;2024-03-02T13:30:27;14.80;1.00
11009;DHT22;5557;51.670;7.788;2024-03-02T13:32:58;14.80;1.00
11009;DHT22;5557;51.670;7.788;2024-03-02T13:35:26;14.70;1.00
11009;DHT22;5557;51.670;7.788;2024-03-02T13:37:53;14.50;1.00
11009;DHT22;5557;51.670;7.788;2024-03-02T13:40:20;14.50;1.00
11009;DHT22;5557;51.670;7.788;2024-03-02T13:42:48;14.50;1.00
11009;DHT22;5557;51.670;7.788;2024-03-02T13:45:16;14.50;1.00
11009;DHT22;5557;51.670;7.788;2024-03-02T13:47:44;14.60;1.00
11009;DHT22;5557;51.670;7.788;2024-03-02T13:50:11;14.70;1.00
11009;DHT22;5557;51.670;7.788;2024-03-02T13:52:39;14.70;1.00
11009;DHT22;5557;51.670;7.788;2024-03-02T13:55:08;14.70;1.00
11009;DHT22;5557;51.670;7.788;2024-03-02T13:57:38;14.50;1.00
11009;DHT22;5557;51.670;7.788;2024-03-02T14:00:06;14.40;1.00
11009;DHT22;5557;51.670;7.788;2024-03-02T14:02:39;14.40;1.00
11009;DHT22;5557;51.670;7.788;2024-03-02T14:05:07;14.40;1.00
11009;DHT22;5557;51.670;7.788;2024-03-02T14:07:38;14.40;1.00
11009;DHT22;5557;51.670;7.788;2024-03-02T14:10:06;14.30;1.00
11009;DHT22;5557;51.670;7.788;2024-03-02T14:12:33;14.40;1.00
11009;DHT22;5557;51.670;7.788;2024-03-02T14:15:00;14.30;1.00
11009;DHT22;5557;51.670;7.788;2024-03-02T14:17:29;14.30;1.00
11009;DHT22;5557;51.670;7.788;2024-03-02T14:19:58;14.30;1.00
11009;DHT22;5557;51.670;7.788;2024-03-02T14:22:26;14.30;1.00
11009;DHT22;5557;51.670;7.788;2024-03-02T14:24:53;14.30;1.00
11009;DHT22;5557;51.670;7.788;2024-03-02T14:27:20;14.40;1.00
11009;DHT22;5557;51.670;7.788;2024-03-02T14:30:04;14.30;1.00
11009;DHT22;5557;51.670;7.788;2024-03-02T14:32:36;14.30;1.00
11009;DHT22;5557;51.670;7.788;2024-03-02T14:35:06;14.30;1.00
11009;DHT22;5557;51.670;7.788;2024-03-02T14:37:37;14.30;1.00
11009;DHT22;5557;51.670;7.788;2024-03-02T14:40:08;14.30;1.00
11009;DHT22;5557;51.670;7.788;2024-03-02T14:42:36;14.40;1.00
11009;DHT22;5557;51.670;7.788;2024-03-02T14:45:04;14.30;1.00
11009;DHT22;5557;51.670;7.788;2024-03-02T14:47:32;14.20;1.00
11009;DHT22;5557;51.670;7.788;2024-03-02T14:50:00;14.20;1.00
11009;DHT22;5557;51.670;7.788;2024-03-02T14:52:28;14.20;1.00
11009;DHT22;5557;51.670;7.788;2024-03-02T14:54:55;14.20;1.00
11009;DHT22;5557;51.670;7.788;2024-03-02T14:57:22;14.20;1.00
11009;DHT22;5557;51.670;7.788;2024-03-02T14:59:49;14.20;1.00
11009;DHT22;5557;51.670;7.788;2024-03-02T15:02:16;14.20;1.00
11009;DHT22;5557;51.670;7.788;2024-03-02T15:04:44;14.20;1.00
11009;DHT22;5557;51.670;7.788;2024-03-02T15:07:12;14.10;1.00
11009;DHT22;5557;51.670;7.788;2024-03-02T15:09:39;14.00;1.00
11009;DHT22;5557;51.670;7.788;2024-03-02T15:12:07;14.00;1.00
11009;DHT22;5557;51.670;7.788;2024-03-02T15:14:37;14.00;1.00
11009;DHT22;5557;51.670;7.788;2024-03-02T15:17:06;14.00;1.00
11009;DHT22;5557;51.670;7.788;2024-03-02T15:19:34;13.90;1.00
11009;DHT22;5557;51.670;7.788;2024-03-02T15:22:03;13.90;1.00
11009;DHT22;5557;51.670;7.788;2024-03-02T15:24:30;13.80;1.00
11009;DHT22;5557;51.670;7.788;2024-03-02T15:26:57;13.80;1.00
11009;DHT22;5557;51.670;7.788;2024-03-02T15:29:24;13.80;1.00
11009;DHT22;5557;51.670;7.788;2024-03-02T15:31:55;13.70;1.00
11009;DHT22;5557;51.670;7.788;2024-03-02T15:34:25;13.70;1.00
11009;DHT22;5557;51.670;7.788;2024-03-02T15:36:55;13.70;1.00
11009;DHT22;5557;51.670;7.788;2024-03-02T15:39:22;13.70;1.00
11009;DHT22;5557;51.670;7.788;2024-03-02T15:41:49;13.70;1.00
11009;DHT22;5557;51.670;7.788;2024-03-02T15:44:17;13.70;1.00
11009;DHT22;5557;51.670;7.788;2024-03-02T15:46:45;13.80;1.00
11009;DHT22;5557;51.670;7.788;2024-03-02T15:49:12;13.70;1.00
11009;DHT22;5557;51.670;7.788;2024-03-02T15:51:39;13.70;1.00
11009;DHT22;5557;51.670;7.788;2024-03-02T15:54:10;13.70;1.00
11009;DHT22;5557;51.670;7.788;2024-03-02T15:56:38;13.70;1.00
11009;DHT22;5557;51.670;7.788;2024-03-02T15:59:06;13.70;1.00
11009;DHT22;5557;51.670;7.788;2024-03-02T16:01:33;13.70;1.00
11009;DHT22;5557;51.670;7.788;2024-03-02T16:04:00;13.70;1.00
11009;DHT22;5557;51.670;7.788;2024-03-02T16:06:27;13.70;1.00
11009;DHT22;5557;51.670;7.788;2024-03-02T16:08:55;13.60;1.00
11009;DHT22;5557;51.670;7.788;2024-03-02T16:11:23;13.60;1.00
11009;DHT22;5557;51.670;7.788;2024-03-02T16:13:51;13.60;1.00
11009;DHT22;5557;51.670;7.788;2024-03-02T16:16:18;13.60;1.00
11009;DHT22;5557;51.670;7.788;2024-03-02T16:18:45;13.60;1.00
11009;DHT22;5557;51.670;7.788;2024-03-02T16:21:12;13.50;1.00
11009;DHT22;5557;51.670;7.788;2024-03-02T16:23:39;13.50;1.00